sensor_id;sensor_type;location;lat;lon;timestamp;pressure;altitude;pressure_sealevel;temperature;humidity
49297;BME280;35163;48.878;18.040;2024-02-26T00:00:31;97438.59;;;11.01;64.97
49297;BME280;35163;48.878;18.040;2024-02-26T00:02:58;97430.91;;;11.00;64.99
49297;BME280;35163;48.878;18.040;2024-02-26T00:05:25;97439.44;;;11.02;64.69
49297;BME280;35163;48.878;18.040;2024-02-26T00:07:51;97429.25;;;10.99;64.90
49297;BME280;35163;48.878;18.040;2024-02-26T00:10:18;97432.88;;;10.94;64.91
49297;BME280;35163;48.878;18.040;2024-02-26T00:12:45;97427.88;;;10.91;64.96
49297;BME280;35163;48.878;18.040;2024-02-26T00:15:12;97423.59;;;10.90;64.95
49297;BME280;35163;48.878;18.040;2024-02-26T00:17:38;97420.25;;;10.88;65.10
49297;BME280;35163;48.878;18.040;2024-02-26T00:20:06;97427.88;;;10.91;64.89
49297;BME280;35163;48.878;18.040;2024-02-26T00:22:36;97427.72;;;10.94;64.78
49297;BME280;35163;48.878;18.040;2024-02-26T00:25:04;97422.53;;;10.94;64.67
49297;BME280;35163;48.878;18.040;2024-02-26T00:27:30;97411.50;;;10.91;64.88
49297;BME280;35163;48.878;18.040;2024-02-26T00:29:57;97418.38;;;10.92;64.91
49297;BME280;35163;48.878;18.040;2024-02-26T00:32:24;97413.19;;;10.92;64.69
49297;BME280;35163;48.878;18.040;2024-02-26T00:34:50;97402.69;;;10.95;64.88
49297;BME280;35163;48.878;18.040;2024-02-26T00:37:17;97399.56;;;10.88;65.12
49297;BME280;35163;48.878;18.040;2024-02-26T00:39:44;97408.22;;;10.87;65.14
49297;BME280;35163;48.878;18.040;2024-02-26T00:42:13;97395.00;;;10.93;64.91
49297;BME280;35163;48.878;18.040;2024-02-26T00:44:39;97385.97;;;10.85;65.54
49297;BME280;35163;48.878;18.040;2024-02-26T00:47:06;97402.16;;;10.88;65.42
49297;BME280;35163;48.878;18.040;2024-02-26T00:49:32;97390.59;;;10.96;65.06
49297;BME280;35163;48.878;18.040;2024-02-26T00:51:59;97396.38;;;11.01;65.07
49297;BME280;35163;48.878;18.040;2024-02-26T00:54:26;97394.53;;;11.03;64.75
49297;BME280;35163;48.878;18.040;2024-02-26T00:56:52;97401.41;;;11.04;65.00
49297;BME280;35163;48.878;18.040;2024-02-26T00:59:19;97397.22;;;11.01;64.87
49297;BME280;35163;48.878;18.040;2024-02-26T01:01:46;97395.56;;;11.00;65.06
49297;BME280;35163;48.878;18.040;2024-02-26T01:04:12;97395.63;;;10.99;65.01
49297;BME280;35163;48.878;18.040;2024-02-26T01:06:39;97391.81;;;10.88;65.58
49297;BME280;35163;48.878;18.040;2024-02-26T01:09:06;97397.13;;;10.85;65.47
49297;BME280;35163;48.878;18.040;2024-02-26T01:11:33;97392.25;;;10.79;65.70
49297;BME280;35163;48.878;18.040;2024-02-26T01:13:59;97397.75;;;10.73;65.81
49297;BME280;35163;48.878;18.040;2024-02-26T01:16:26;97396.97;;;10.71;66.28
49297;BME280;35163;48.878;18.040;2024-02-26T01:18:55;97393.00;;;10.63;66.09
49297;BME280;35163;48.878;18.040;2024-02-26T01:21:22;97404.41;;;10.59;66.76
49297;BME280;35163;48.878;18.040;2024-02-26T01:23:49;97400.44;;;10.52;66.89
49297;BME280;35163;48.878;18.040;2024-02-26T01:26:15;97395.66;;;10.42;67.66
49297;BME280;35163;48.878;18.040;2024-02-26T01:28:42;97400.09;;;10.40;67.03
49297;BME280;35163;48.878;18.040;2024-02-26T01:31:09;97405.34;;;10.39;67.50
49297;BME280;35163;48.878;18.040;2024-02-26T01:33:36;97404.63;;;10.35;67.12
49297;BME280;35163;48.878;18.040;2024-02-26T01:36:03;97393.59;;;10.31;67.52
49297;BME280;35163;48.878;18.040;2024-02-26T01:38:30;97393.88;;;10.25;67.54
49297;BME280;35163;48.878;18.040;2024-02-26T01:40:57;97392.34;;;10.21;67.93
49297;BME280;35163;48.878;18.040;2024-02-26T01:43:23;97400.19;;;10.19;67.66
49297;BME280;35163;48.878;18.040;2024-02-26T01:45:50;97394.09;;;10.20;67.50
49297;BME280;35163;48.878;18.040;2024-02-26T01:48:17;97395.09;;;10.18;68.20
49297;BME280;35163;48.878;18.040;2024-02-26T01:50:44;97390.00;;;10.16;68.34
49297;BME280;35163;48.878;18.040;2024-02-26T01:53:10;97390.88;;;10.15;68.48
49297;BME280;35163;48.878;18.040;2024-02-26T01:55:38;97387.44;;;10.15;69.24
49297;BME280;35163;48.878;18.040;2024-02-26T01:58:05;97383.97;;;10.16;69.10
49297;BME280;35163;48.878;18.040;2024-02-26T02:00:32;97385.66;;;10.17;68.87
49297;BME280;35163;48.878;18.040;2024-02-26T02:02:59;97376.94;;;10.19;68.77
49297;BME280;35163;48.878;18.040;2024-02-26T02:05:26;97390.53;;;10.23;68.62
49297;BME280;35163;48.878;18.040;2024-02-26T02:07:53;97383.59;;;10.24;68.76
49297;BME280;35163;48.878;18.040;2024-02-26T02:10:20;97386.19;;;10.24;69.06
49297;BME280;35163;48.878;18.040;2024-02-26T02:12:52;97380.00;;;10.28;68.87
49297;BME280;35163;48.878;18.040;2024-02-26T02:15:19;97376.41;;;10.30;68.89
49297;BME280;35163;48.878;18.040;2024-02-26T02:17:47;97377.09;;;10.34;68.80
49297;BME280;35163;48.878;18.040;2024-02-26T02:20:17;97374.44;;;10.36;69.22
49297;BME280;35163;48.878;18.040;2024-02-26T02:22:45;97375.22;;;10.38;68.96
49297;BME280;35163;48.878;18.040;2024-02-26T02:25:12;97369.16;;;10.39;68.51
49297;BME280;35163;48.878;18.040;2024-02-26T02:27:40;97378.34;;;10.44;68.55
49297;BME280;35163;48.878;18.040;2024-02-26T02:30:07;97375.69;;;10.46;68.56
49297;BME280;35163;48.878;18.040;2024-02-26T02:32:37;97378.22;;;10.48;68.10
49297;BME280;35163;48.878;18.040;2024-02-26T02:35:06;97367.06;;;10.47;68.65
49297;BME280;35163;48.878;18.040;2024-02-26T02:37:32;97368.00;;;10.44;68.60
49297;BME280;35163;48.878;18.040;2024-02-26T02:39:59;97364.53;;;10.45;68.43
49297;BME280;35163;48.878;18.040;2024-02-26T02:42:26;97361.91;;;10.47;68.15
49297;BME280;35163;48.878;18.040;2024-02-26T02:44:53;97359.34;;;10.45;68.34
49297;BME280;35163;48.878;18.040;2024-02-26T02:47:19;97364.41;;;10.49;68.23
49297;BME280;35163;48.878;18.040;2024-02-26T02:49:46;97357.41;;;10.51;68.09
49297;BME280;35163;48.878;18.040;2024-02-26T02:52:13;97357.41;;;10.51;68.31
49297;BME280;35163;48.878;18.040;2024-02-26T02:54:39;97355.72;;;10.50;68.28
49297;BME280;35163;48.878;18.040;2024-02-26T02:57:08;97353.06;;;10.51;68.06
49297;BME280;35163;48.878;18.040;2024-02-26T02:59:36;97363.19;;;10.56;67.58
49297;BME280;35163;48.878;18.040;2024-02-26T03:02:02;97355.31;;;10.59;67.41
49297;BME280;35163;48.878;18.040;2024-02-26T03:04:29;97357.03;;;10.59;67.57
49297;BME280;35163;48.878;18.040;2024-02-26T03:06:56;97357.03;;;10.59;67.70
49297;BME280;35163;48.878;18.040;2024-02-26T03:09:23;97350.13;;;10.59;67.72
49297;BME280;35163;48.878;18.040;2024-02-26T03:11:50;97355.91;;;10.64;67.28
49297;BME280;35163;48.878;18.040;2024-02-26T03:14:16;97355.00;;;10.65;67.17
49297;BME280;35163;48.878;18.040;2024-02-26T03:16:43;97343.88;;;10.63;67.34
49297;BME280;35163;48.878;18.040;2024-02-26T03:19:10;97339.47;;;10.65;67.21
49297;BME280;35163;48.878;18.040;2024-02-26T03:21:36;97335.31;;;10.63;67.26
49297;BME280;35163;48.878;18.040;2024-02-26T03:24:03;97334.47;;;10.62;67.25
49297;BME280;35163;48.878;18.040;2024-02-26T03:26:30;97334.53;;;10.61;67.23
49297;BME280;35163;48.878;18.040;2024-02-26T03:28:57;97330.19;;;10.61;66.99
49297;BME280;35163;48.878;18.040;2024-02-26T03:31:24;97321.69;;;10.59;67.23
49297;BME280;35163;48.878;18.040;2024-02-26T03:33:50;97317.25;;;10.61;67.35
49297;BME280;35163;48.878;18.040;2024-02-26T03:36:17;97310.28;;;10.63;67.06
49297;BME280;35163;48.878;18.040;2024-02-26T03:38:44;97309.47;;;10.63;66.85
49297;BME280;35163;48.878;18.040;2024-02-26T03:41:10;97307.94;;;10.59;66.74
49297;BME280;35163;48.878;18.040;2024-02-26T03:43:37;97304.34;;;10.61;66.55
49297;BME280;35163;48.878;18.040;2024-02-26T03:46:07;97302.69;;;10.60;66.08
49297;BME280;35163;48.878;18.040;2024-02-26T03:48:34;97305.25;;;10.60;66.12
49297;BME280;35163;48.878;18.040;2024-02-26T03:51:01;97301.84;;;10.60;66.47
49297;BME280;35163;48.878;18.040;2024-02-26T03:53:27;97292.34;;;10.60;66.25
49297;BME280;35163;48.878;18.040;2024-02-26T03:55:54;97294.00;;;10.61;66.40
49297;BME280;35163;48.878;18.040;2024-02-26T03:58:21;97297.66;;;10.57;66.27
49297;BME280;35163;48.878;18.040;2024-02-26T04:00:48;97304.50;;;10.58;65.89
49297;BME280;35163;48.878;18.040;2024-02-26T04:03:15;97297.59;;;10.59;65.81
49297;BME280;35163;48.878;18.040;2024-02-26T04:05:41;97300.31;;;10.55;66.10
49297;BME280;35163;48.878;18.040;2024-02-26T04:08:08;97300.31;;;10.55;66.04
49297;BME280;35163;48.878;18.040;2024-02-26T04:10:35;97293.38;;;10.56;65.87
49297;BME280;35163;48.878;18.040;2024-02-26T04:13:01;97296.91;;;10.55;66.23
49297;BME280;35163;48.878;18.040;2024-02-26T04:15:30;97306.25;;;10.57;65.84
49297;BME280;35163;48.878;18.040;2024-02-26T04:17:56;97306.31;;;10.56;66.29
49297;BME280;35163;48.878;18.040;2024-02-26T04:20:23;97306.47;;;10.53;66.49
49297;BME280;35163;48.878;18.040;2024-02-26T04:22:50;97307.47;;;10.50;66.54
49297;BME280;35163;48.878;18.040;2024-02-26T04:25:17;97305.72;;;10.51;66.70
49297;BME280;35163;48.878;18.040;2024-02-26T04:27:43;97305.72;;;10.51;66.96
49297;BME280;35163;48.878;18.040;2024-02-26T04:30:10;97303.06;;;10.52;66.83
49297;BME280;35163;48.878;18.040;2024-02-26T04:32:37;97303.06;;;10.52;66.87
49297;BME280;35163;48.878;18.040;2024-02-26T04:35:04;97312.56;;;10.52;66.68
49297;BME280;35163;48.878;18.040;2024-02-26T04:37:31;97304.16;;;10.47;66.89
49297;BME280;35163;48.878;18.040;2024-02-26T04:40:01;97311.03;;;10.48;66.68
49297;BME280;35163;48.878;18.040;2024-02-26T04:42:27;97306.53;;;10.51;67.03
49297;BME280;35163;48.878;18.040;2024-02-26T04:44:54;97305.72;;;10.51;67.15
49297;BME280;35163;48.878;18.040;2024-02-26T04:47:22;97307.22;;;10.55;66.89
49297;BME280;35163;48.878;18.040;2024-02-26T04:49:49;97295.31;;;10.52;66.93
49297;BME280;35163;48.878;18.040;2024-02-26T04:52:17;97295.41;;;10.51;67.15
49297;BME280;35163;48.878;18.040;2024-02-26T04:54:43;97295.31;;;10.52;66.72
49297;BME280;35163;48.878;18.040;2024-02-26T04:57:10;97301.31;;;10.53;66.84
49297;BME280;35163;48.878;18.040;2024-02-26T04:59:36;97303.00;;;10.54;66.52
49297;BME280;35163;48.878;18.040;2024-02-26T05:02:03;97298.88;;;10.50;66.71
49297;BME280;35163;48.878;18.040;2024-02-26T05:04:30;97290.16;;;10.52;66.12
49297;BME280;35163;48.878;18.040;2024-02-26T05:06:57;97291.81;;;10.53;66.08
49297;BME280;35163;48.878;18.040;2024-02-26T05:09:24;97291.72;;;10.55;66.16
49297;BME280;35163;48.878;18.040;2024-02-26T05:11:50;97302.00;;;10.56;66.07
49297;BME280;35163;48.878;18.040;2024-02-26T05:14:17;97296.91;;;10.55;66.13
49297;BME280;35163;48.878;18.040;2024-02-26T05:16:44;97300.41;;;10.54;66.44
49297;BME280;35163;48.878;18.040;2024-02-26T05:19:11;97296.91;;;10.55;66.21
49297;BME280;35163;48.878;18.040;2024-02-26T05:21:37;97297.06;;;10.52;66.10
49297;BME280;35163;48.878;18.040;2024-02-26T05:24:04;97298.88;;;10.50;65.84
49297;BME280;35163;48.878;18.040;2024-02-26T05:26:31;97301.53;;;10.48;66.53
49297;BME280;35163;48.878;18.040;2024-02-26T05:28:57;97303.19;;;10.49;66.21
49297;BME280;35163;48.878;18.040;2024-02-26T05:31:26;97303.28;;;10.48;66.35
49297;BME280;35163;48.878;18.040;2024-02-26T05:33:53;97305.84;;;10.48;66.69
49297;BME280;35163;48.878;18.040;2024-02-26T05:36:21;97312.72;;;10.49;66.46
49297;BME280;35163;48.878;18.040;2024-02-26T05:38:49;97307.69;;;10.45;66.91
49297;BME280;35163;48.878;18.040;2024-02-26T05:41:16;97320.59;;;10.45;66.72
49297;BME280;35163;48.878;18.040;2024-02-26T05:43:46;97312.84;;;10.45;66.59
49297;BME280;35163;48.878;18.040;2024-02-26T05:46:13;97307.69;;;10.45;67.13
49297;BME280;35163;48.878;18.040;2024-02-26T05:48:39;97313.72;;;10.44;66.85
49297;BME280;35163;48.878;18.040;2024-02-26T05:51:06;97309.50;;;10.43;66.77
49297;BME280;35163;48.878;18.040;2024-02-26T05:53:33;97314.66;;;10.43;67.31
49297;BME280;35163;48.878;18.040;2024-02-26T05:56:00;97322.41;;;10.43;67.63
49297;BME280;35163;48.878;18.040;2024-02-26T05:58:26;97329.31;;;10.43;67.18
49297;BME280;35163;48.878;18.040;2024-02-26T06:00:53;97323.19;;;10.45;67.70
49297;BME280;35163;48.878;18.040;2024-02-26T06:03:20;97328.34;;;10.45;67.81
49297;BME280;35163;48.878;18.040;2024-02-26T06:05:46;97323.94;;;10.48;67.87
49297;BME280;35163;48.878;18.040;2024-02-26T06:08:13;97332.47;;;10.50;68.03
49297;BME280;35163;48.878;18.040;2024-02-26T06:10:40;97340.22;;;10.50;68.10
49297;BME280;35163;48.878;18.040;2024-02-26T06:13:07;97342.56;;;10.54;67.94
49297;BME280;35163;48.878;18.040;2024-02-26T06:15:33;97337.31;;;10.56;67.65
49297;BME280;35163;48.878;18.040;2024-02-26T06:18:00;97344.03;;;10.60;67.48
49297;BME280;35163;48.878;18.040;2024-02-26T06:20:27;97344.88;;;10.61;67.58
49297;BME280;35163;48.878;18.040;2024-02-26T06:22:54;97343.00;;;10.64;67.54
49297;BME280;35163;48.878;18.040;2024-02-26T06:25:20;97345.50;;;10.66;67.50
49297;BME280;35163;48.878;18.040;2024-02-26T06:27:47;97341.91;;;10.68;67.60
49297;BME280;35163;48.878;18.040;2024-02-26T06:30:14;97351.34;;;10.69;67.58
49297;BME280;35163;48.878;18.040;2024-02-26T06:32:40;97352.09;;;10.72;67.50
49297;BME280;35163;48.878;18.040;2024-02-26T06:35:07;97356.59;;;10.68;67.77
49297;BME280;35163;48.878;18.040;2024-02-26T06:37:36;97365.19;;;10.68;68.14
49297;BME280;35163;48.878;18.040;2024-02-26T06:40:03;97359.03;;;10.71;67.56
49297;BME280;35163;48.878;18.040;2024-02-26T06:42:30;97356.38;;;10.73;67.79
49297;BME280;35163;48.878;18.040;2024-02-26T06:44:57;97362.31;;;10.75;67.85
49297;BME280;35163;48.878;18.040;2024-02-26T06:47:24;97363.91;;;10.77;67.73
49297;BME280;35163;48.878;18.040;2024-02-26T06:49:52;97364.75;;;10.78;67.86
49297;BME280;35163;48.878;18.040;2024-02-26T06:52:19;97363.72;;;10.80;67.66
49297;BME280;35163;48.878;18.040;2024-02-26T06:54:45;97358.56;;;10.80;67.42
49297;BME280;35163;48.878;18.040;2024-02-26T06:57:14;97368.09;;;10.80;67.39
49297;BME280;35163;48.878;18.040;2024-02-26T06:59:41;97362.00;;;10.81;67.35
49297;BME280;35163;48.878;18.040;2024-02-26T07:02:15;97357.44;;;10.86;67.21
49297;BME280;35163;48.878;18.040;2024-02-26T07:04:43;97367.00;;;10.84;67.46
49297;BME280;35163;48.878;18.040;2024-02-26T07:07:09;97372.94;;;10.86;67.60
49297;BME280;35163;48.878;18.040;2024-02-26T07:09:37;97360.78;;;10.88;67.16
49297;BME280;35163;48.878;18.040;2024-02-26T07:12:04;97364.94;;;10.91;67.23
49297;BME280;35163;48.878;18.040;2024-02-26T07:14:31;97362.44;;;10.89;67.55
49297;BME280;35163;48.878;18.040;2024-02-26T07:16:58;97368.38;;;10.91;67.49
49297;BME280;35163;48.878;18.040;2024-02-26T07:19:25;97368.16;;;10.96;67.64
49297;BME280;35163;48.878;18.040;2024-02-26T07:21:52;97369.06;;;10.95;67.59
49297;BME280;35163;48.878;18.040;2024-02-26T07:24:18;97376.69;;;10.98;67.87
49297;BME280;35163;48.878;18.040;2024-02-26T07:26:45;97368.84;;;11.00;67.76
49297;BME280;35163;48.878;18.040;2024-02-26T07:29:12;97377.28;;;11.03;67.30
49297;BME280;35163;48.878;18.040;2024-02-26T07:31:38;97370.38;;;11.04;67.41
49297;BME280;35163;48.878;18.040;2024-02-26T07:34:05;97372.88;;;11.05;67.74
49297;BME280;35163;48.878;18.040;2024-02-26T07:36:32;97380.47;;;11.09;67.82
49297;BME280;35163;48.878;18.040;2024-02-26T07:38:58;97376.06;;;11.11;67.56
49297;BME280;35163;48.878;18.040;2024-02-26T07:41:25;97376.72;;;11.14;67.31
49297;BME280;35163;48.878;18.040;2024-02-26T07:43:52;97370.66;;;11.15;67.63
49297;BME280;35163;48.878;18.040;2024-02-26T07:46:19;97377.50;;;11.16;67.92
49297;BME280;35163;48.878;18.040;2024-02-26T07:48:45;97380.00;;;11.18;67.71
49297;BME280;35163;48.878;18.040;2024-02-26T07:51:14;97380.75;;;11.20;67.74
49297;BME280;35163;48.878;18.040;2024-02-26T07:53:41;97378.94;;;11.22;67.60
49297;BME280;35163;48.878;18.040;2024-02-26T07:56:08;97386.63;;;11.24;67.79
49297;BME280;35163;48.878;18.040;2024-02-26T07:58:35;97389.97;;;11.26;67.80
49297;BME280;35163;48.878;18.040;2024-02-26T08:01:02;97382.97;;;11.28;67.92
49297;BME280;35163;48.878;18.040;2024-02-26T08:03:28;97381.13;;;11.30;68.30
49297;BME280;35163;48.878;18.040;2024-02-26T08:05:55;97381.81;;;11.34;67.84
49297;BME280;35163;48.878;18.040;2024-02-26T08:08:22;97379.91;;;11.37;68.06
49297;BME280;35163;48.878;18.040;2024-02-26T08:10:49;97380.59;;;11.41;68.29
49297;BME280;35163;48.878;18.040;2024-02-26T08:13:16;97373.59;;;11.43;68.54
49297;BME280;35163;48.878;18.040;2024-02-26T08:15:43;97378.59;;;11.46;68.50
49297;BME280;35163;48.878;18.040;2024-02-26T08:18:09;97383.53;;;11.51;68.40
49297;BME280;35163;48.878;18.040;2024-02-26T08:20:36;97375.69;;;11.52;68.63
49297;BME280;35163;48.878;18.040;2024-02-26T08:23:04;97374.69;;;11.55;68.50
49297;BME280;35163;48.878;18.040;2024-02-26T08:25:30;97372.88;;;11.57;68.51
49297;BME280;35163;48.878;18.040;2024-02-26T08:27:57;97379.47;;;11.63;68.38
49297;BME280;35163;48.878;18.040;2024-02-26T08:30:23;97369.69;;;11.68;68.68
49297;BME280;35163;48.878;18.040;2024-02-26T08:32:50;97372.03;;;11.73;68.75
49297;BME280;35163;48.878;18.040;2024-02-26T08:35:18;97374.41;;;11.77;68.76
49297;BME280;35163;48.878;18.040;2024-02-26T08:37:46;97376.75;;;11.82;68.44
49297;BME280;35163;48.878;18.040;2024-02-26T08:40:14;97383.44;;;11.86;68.80
49297;BME280;35163;48.878;18.040;2024-02-26T08:42:41;97379.75;;;11.90;68.68
49297;BME280;35163;48.878;18.040;2024-02-26T08:45:08;97374.41;;;11.94;67.93
49297;BME280;35163;48.878;18.040;2024-02-26T08:47:35;97376.81;;;11.97;68.40
49297;BME280;35163;48.878;18.040;2024-02-26T08:50:02;97380.00;;;12.02;68.15
49297;BME280;35163;48.878;18.040;2024-02-26T08:52:29;97379.84;;;12.05;68.20
49297;BME280;35163;48.878;18.040;2024-02-26T08:54:55;97370.13;;;12.10;67.95
49297;BME280;35163;48.878;18.040;2024-02-26T08:57:23;97364.84;;;12.12;68.03
49297;BME280;35163;48.878;18.040;2024-02-26T08:59:50;97370.59;;;12.17;67.83
49297;BME280;35163;48.878;18.040;2024-02-26T09:02:16;97371.28;;;12.21;67.67
49297;BME280;35163;48.878;18.040;2024-02-26T09:04:43;97365.94;;;12.24;67.75
49297;BME280;35163;48.878;18.040;2024-02-26T09:07:10;97367.41;;;12.28;67.63
49297;BME280;35163;48.878;18.040;2024-02-26T09:09:37;97363.75;;;12.32;67.58
49297;BME280;35163;48.878;18.040;2024-02-26T09:12:04;97374.69;;;12.37;67.65
49297;BME280;35163;48.878;18.040;2024-02-26T09:14:31;97358.97;;;12.41;67.76
49297;BME280;35163;48.878;18.040;2024-02-26T09:16:58;97364.53;;;12.49;67.34
49297;BME280;35163;48.878;18.040;2024-02-26T09:19:26;97367.53;;;12.57;67.14
49297;BME280;35163;48.878;18.040;2024-02-26T09:21:54;97363.69;;;12.64;66.71
49297;BME280;35163;48.878;18.040;2024-02-26T09:24:24;97359.06;;;12.70;66.23
49297;BME280;35163;48.878;18.040;2024-02-26T09:26:51;97362.22;;;12.75;65.77
49297;BME280;35163;48.878;18.040;2024-02-26T09:29:18;97354.09;;;12.81;65.65
49297;BME280;35163;48.878;18.040;2024-02-26T09:31:45;97360.78;;;12.85;65.45
49297;BME280;35163;48.878;18.040;2024-02-26T09:34:14;97358.66;;;12.92;65.37
49297;BME280;35163;48.878;18.040;2024-02-26T09:36:41;97364.22;;;13.00;65.07
49297;BME280;35163;48.878;18.040;2024-02-26T09:39:07;97358.69;;;13.07;64.45
49297;BME280;35163;48.878;18.040;2024-02-26T09:41:38;97366.22;;;13.11;64.45
49297;BME280;35163;48.878;18.040;2024-02-26T09:44:05;97364.19;;;13.17;64.20
49297;BME280;35163;48.878;18.040;2024-02-26T09:46:32;97370.09;;;13.19;63.55
49297;BME280;35163;48.878;18.040;2024-02-26T09:48:59;97363.81;;;13.23;63.26
49297;BME280;35163;48.878;18.040;2024-02-26T09:51:27;97355.94;;;13.24;62.96
49297;BME280;35163;48.878;18.040;2024-02-26T09:53:54;97357.53;;;13.27;62.77
49297;BME280;35163;48.878;18.040;2024-02-26T09:56:23;97365.13;;;13.30;62.66
49297;BME280;35163;48.878;18.040;2024-02-26T09:58:50;97366.69;;;13.33;61.79
49297;BME280;35163;48.878;18.040;2024-02-26T10:01:21;97373.47;;;13.35;61.15
49297;BME280;35163;48.878;18.040;2024-02-26T10:03:54;97381.06;;;13.39;60.84
49297;BME280;35163;48.878;18.040;2024-02-26T10:06:22;97374.84;;;13.41;60.44
49297;BME280;35163;48.878;18.040;2024-02-26T10:08:49;97381.63;;;13.44;59.63
49297;BME280;35163;48.878;18.040;2024-02-26T10:11:16;97371.06;;;13.47;59.72
49297;BME280;35163;48.878;18.040;2024-02-26T10:13:43;97378.66;;;13.50;60.00
49297;BME280;35163;48.878;18.040;2024-02-26T10:16:10;97378.59;;;13.52;59.76
49297;BME280;35163;48.878;18.040;2024-02-26T10:18:46;97386.38;;;13.52;59.91
49297;BME280;35163;48.878;18.040;2024-02-26T10:21:24;97374.25;;;13.52;59.99
49297;BME280;35163;48.878;18.040;2024-02-26T10:23:51;97388.78;;;13.55;59.76
49297;BME280;35163;48.878;18.040;2024-02-26T10:26:19;97390.19;;;13.60;59.47
49297;BME280;35163;48.878;18.040;2024-02-26T10:28:45;97390.19;;;13.60;59.65
49297;BME280;35163;48.878;18.040;2024-02-26T10:31:15;97385.75;;;13.63;59.74
49297;BME280;35163;48.878;18.040;2024-02-26T10:33:43;97379.63;;;13.64;59.87
49297;BME280;35163;48.878;18.040;2024-02-26T10:36:12;97376.00;;;13.66;59.88
49297;BME280;35163;48.878;18.040;2024-02-26T10:38:38;97380.91;;;13.71;59.25
49297;BME280;35163;48.878;18.040;2024-02-26T10:41:13;97375.63;;;13.72;59.32
49297;BME280;35163;48.878;18.040;2024-02-26T10:43:40;97381.56;;;13.75;59.49
49297;BME280;35163;48.878;18.040;2024-02-26T10:46:08;97384.81;;;13.78;59.16
49297;BME280;35163;48.878;18.040;2024-02-26T10:48:35;97380.38;;;13.80;59.17
49297;BME280;35163;48.878;18.040;2024-02-26T10:51:02;97371.63;;;13.81;59.17
49297;BME280;35163;48.878;18.040;2024-02-26T10:53:29;97368.84;;;13.84;59.16
49297;BME280;35163;48.878;18.040;2024-02-26T10:56:02;97380.63;;;13.90;58.92
49297;BME280;35163;48.878;18.040;2024-02-26T10:58:31;97369.28;;;13.91;58.57
49297;BME280;35163;48.878;18.040;2024-02-26T11:00:58;97375.34;;;13.92;58.78
49297;BME280;35163;48.878;18.040;2024-02-26T11:03:26;97365.69;;;13.94;58.77
49297;BME280;35163;48.878;18.040;2024-02-26T11:05:53;97367.13;;;13.98;58.33
49297;BME280;35163;48.878;18.040;2024-02-26T11:08:21;97368.72;;;14.01;58.37
49297;BME280;35163;48.878;18.040;2024-02-26T11:10:52;97360.84;;;14.02;58.55
49297;BME280;35163;48.878;18.040;2024-02-26T11:13:21;97366.78;;;14.04;58.72
49297;BME280;35163;48.878;18.040;2024-02-26T11:15:48;97361.59;;;14.04;58.67
49297;BME280;35163;48.878;18.040;2024-02-26T11:18:15;97364.78;;;14.08;59.19
49297;BME280;35163;48.878;18.040;2024-02-26T11:20:44;97361.19;;;14.11;58.54
49297;BME280;35163;48.878;18.040;2024-02-26T11:23:11;97365.19;;;14.16;58.51
49297;BME280;35163;48.878;18.040;2024-02-26T11:25:38;97355.50;;;14.18;58.30
49297;BME280;35163;48.878;18.040;2024-02-26T11:28:16;97346.56;;;14.23;58.07
49297;BME280;35163;48.878;18.040;2024-02-26T11:30:46;97352.41;;;14.26;58.47
49297;BME280;35163;48.878;18.040;2024-02-26T11:33:15;97353.16;;;14.28;58.41
49297;BME280;35163;48.878;18.040;2024-02-26T11:35:44;97346.06;;;14.30;58.11
49297;BME280;35163;48.878;18.040;2024-02-26T11:38:20;97342.34;;;14.34;57.24
49297;BME280;35163;48.878;18.040;2024-02-26T11:40:48;97342.16;;;14.38;57.57
49297;BME280;35163;48.878;18.040;2024-02-26T11:43:14;97342.91;;;14.40;57.82
49297;BME280;35163;48.878;18.040;2024-02-26T11:48:12;97345.84;;;14.48;56.60
49297;BME280;35163;48.878;18.040;2024-02-26T11:50:41;97340.44;;;14.51;56.55
49297;BME280;35163;48.878;18.040;2024-02-26T11:55:46;97341.69;;;14.58;56.62
49297;BME280;35163;48.878;18.040;2024-02-26T11:58:13;97343.28;;;14.61;55.71
49297;BME280;35163;48.878;18.040;2024-02-26T12:00:40;97337.03;;;14.64;55.50
49297;BME280;35163;48.878;18.040;2024-02-26T12:03:07;97331.72;;;14.65;55.88
49297;BME280;35163;48.878;18.040;2024-02-26T12:05:37;97328.00;;;14.69;54.87
49297;BME280;35163;48.878;18.040;2024-02-26T12:08:08;97328.63;;;14.73;54.66
49297;BME280;35163;48.878;18.040;2024-02-26T12:10:36;97333.63;;;14.76;54.49
49297;BME280;35163;48.878;18.040;2024-02-26T12:15:44;97321.88;;;14.84;53.76
49297;BME280;35163;48.878;18.040;2024-02-26T12:18:17;97312.09;;;14.87;53.03
49297;BME280;35163;48.878;18.040;2024-02-26T12:20:44;97323.16;;;14.91;53.39
49297;BME280;35163;48.878;18.040;2024-02-26T12:23:15;97303.91;;;14.93;53.28
49297;BME280;35163;48.878;18.040;2024-02-26T12:25:43;97314.84;;;14.99;52.10
49297;BME280;35163;48.878;18.040;2024-02-26T12:28:10;97311.09;;;15.03;50.64
49297;BME280;35163;48.878;18.040;2024-02-26T12:30:37;97314.41;;;15.05;51.61
49297;BME280;35163;48.878;18.040;2024-02-26T12:33:03;97303.91;;;15.06;51.29
49297;BME280;35163;48.878;18.040;2024-02-26T12:35:31;97316.59;;;15.11;52.08
49297;BME280;35163;48.878;18.040;2024-02-26T12:37:58;97314.63;;;15.15;51.78
49297;BME280;35163;48.878;18.040;2024-02-26T12:40:26;97305.91;;;15.16;51.65
49297;BME280;35163;48.878;18.040;2024-02-26T12:42:53;97311.81;;;15.18;51.67
49297;BME280;35163;48.878;18.040;2024-02-26T12:45:21;97313.50;;;15.19;52.04
49297;BME280;35163;48.878;18.040;2024-02-26T12:47:48;97315.97;;;15.21;51.88
49297;BME280;35163;48.878;18.040;2024-02-26T12:50:17;97320.13;;;15.23;51.44
49297;BME280;35163;48.878;18.040;2024-02-26T12:52:46;97325.34;;;15.23;51.57
49297;BME280;35163;48.878;18.040;2024-02-26T12:55:15;97322.44;;;15.28;51.64
49297;BME280;35163;48.878;18.040;2024-02-26T12:57:43;97320.75;;;15.27;52.00